createdAt,value
2023-05-12T00:01:17.030Z,100011.31
2023-05-12T00:04:19.622Z,100013.56
2023-05-12T00:07:22.587Z,100013.61
2023-05-12T00:10:27.464Z,100010.82
2023-05-12T00:13:30.264Z,100012.68
2023-05-12T00:16:33.108Z,100010.52
2023-05-12T00:19:36.676Z,100014.27
2023-05-12T00:22:40.276Z,100013.08
2023-05-12T00:25:42.937Z,100009.73
2023-05-12T00:28:47.616Z,100008.48
2023-05-12T00:31:50.301Z,100002.10
2023-05-12T00:34:54.506Z,100004.70
2023-05-12T00:37:57.225Z,100002.14
2023-05-12T00:40:59.876Z,100005.59
2023-05-12T00:44:02.448Z,100002.71
2023-05-12T00:47:05.277Z,100002.09
2023-05-12T00:50:08.694Z,100005.52
2023-05-12T00:53:12.992Z,100003.13
2023-05-12T00:56:17.965Z,100005.38
2023-05-12T00:59:20.762Z,100006.88
2023-05-12T01:02:23.984Z,100004.96
2023-05-12T01:05:32.112Z,100001.99
2023-05-12T01:08:35.198Z,100000.78
2023-05-12T01:11:38.098Z,100000.31
2023-05-12T01:14:41.556Z,99999.85
2023-05-12T01:17:53.891Z,99997.08
2023-05-12T01:20:57.311Z,100000.67
2023-05-12T01:24:06.530Z,100002.42
2023-05-12T01:27:10.118Z,100008.08
2023-05-12T01:30:16.616Z,100014.77
2023-05-12T01:33:19.350Z,100014.27
2023-05-12T01:36:21.896Z,100013.38
2023-05-12T01:39:24.466Z,100016.91
2023-05-12T01:42:27.031Z,100018.36
2023-05-12T01:45:29.687Z,100015.56
2023-05-12T01:48:32.357Z,100017.65
2023-05-12T01:51:34.918Z,100022.36
2023-05-12T01:54:37.457Z,100025.84
2023-05-12T01:57:40.040Z,100023.34
2023-05-12T02:00:42.648Z,100021.20
2023-05-12T02:03:45.224Z,100027.69
2023-05-12T02:06:47.800Z,100024.91
2023-05-12T02:09:51.131Z,100026.44
2023-05-12T02:12:53.751Z,100028.89
2023-05-12T02:15:56.279Z,100028.88
2023-05-12T02:18:58.935Z,100031.46
2023-05-12T02:22:01.773Z,100035.83
2023-05-12T02:25:04.956Z,100032.90
2023-05-12T02:28:10.967Z,100035.86
2023-05-12T02:31:13.743Z,100034.23
2023-05-12T02:34:16.338Z,100034.52
2023-05-12T02:37:19.004Z,100040.28
2023-05-12T02:40:21.669Z,100041.70
2023-05-12T02:43:24.533Z,100041.84
2023-05-12T02:46:27.316Z,100041.62
2023-05-12T02:49:30.466Z,100046.52
2023-05-12T02:52:32.990Z,100045.14
2023-05-12T02:55:35.692Z,100042.29
2023-05-12T02:58:38.377Z,100041.04
2023-05-12T03:01:41.113Z,100036.83
2023-05-12T03:04:43.798Z,100036.23
2023-05-12T03:07:48.727Z,100036.48
2023-05-12T03:10:51.421Z,100030.54
2023-05-12T03:13:54.130Z,100032.91
2023-05-12T03:16:57.302Z,100039.00
2023-05-12T03:20:00.108Z,100039.12
2023-05-12T03:23:03.986Z,100042.02
2023-05-12T03:26:06.653Z,100043.42
2023-05-12T03:29:09.314Z,100043.88
2023-05-12T03:32:11.876Z,100046.61
2023-05-12T03:35:14.539Z,100044.81
2023-05-12T03:38:17.099Z,100046.87
2023-05-12T03:41:19.703Z,100048.26
2023-05-12T03:44:22.342Z,100048.20
2023-05-12T03:50:27.666Z,100052.19
2023-05-12T03:53:30.438Z,100051.43
2023-05-12T03:56:33.310Z,100060.23
2023-05-12T03:59:35.893Z,100061.41
2023-05-12T04:02:38.987Z,100062.12
2023-05-12T04:05:42.822Z,100063.33
2023-05-12T04:08:45.595Z,100063.70
2023-05-12T04:11:48.267Z,100065.02
2023-05-12T04:14:51.238Z,100069.73
2023-05-12T04:17:53.870Z,100072.47
2023-05-12T04:20:56.977Z,100072.41
2023-05-12T04:23:59.585Z,100075.67
2023-05-12T04:27:02.205Z,100073.55
2023-05-12T04:30:05.330Z,100071.42
2023-05-12T04:33:08.886Z,100071.98
2023-05-12T04:36:13.790Z,100073.56
2023-05-12T04:39:16.383Z,100076.44
2023-05-12T04:42:19.115Z,100076.17
2023-05-12T04:45:22.170Z,100076.41
2023-05-12T04:48:25.163Z,100073.40
2023-05-12T04:51:27.830Z,100073.35
2023-05-12T04:54:39.084Z,100071.25
2023-05-12T04:57:41.755Z,100075.64
2023-05-12T05:00:44.610Z,100076.98
2023-05-12T05:03:47.489Z,100078.48
2023-05-12T05:06:50.363Z,100080.56
2023-05-12T05:09:52.949Z,100083.66
2023-05-12T05:12:55.486Z,100088.11
2023-05-12T05:15:58.092Z,100088.85
2023-05-12T05:19:05.733Z,100091.85
2023-05-12T05:22:09.791Z,100094.96
2023-05-12T05:25:13.875Z,100097.56
2023-05-12T05:28:17.308Z,100096.31
2023-05-12T05:31:19.990Z,100093.05
2023-05-12T05:34:22.981Z,100090.57
2023-05-12T05:37:25.793Z,100086.34
2023-05-12T05:40:30.582Z,100090.60
2023-05-12T05:43:36.673Z,100091.30
2023-05-12T05:46:39.282Z,100097.94
2023-05-12T05:49:42.297Z,100100.80
2023-05-12T05:52:44.867Z,100101.90
2023-05-12T05:55:48.869Z,100102.80
2023-05-12T05:58:51.543Z,100103.31
2023-05-12T06:01:54.135Z,100102.07
2023-05-12T06:04:56.846Z,100103.77
2023-05-12T06:07:59.387Z,100102.73
2023-05-12T06:11:01.980Z,100103.71
2023-05-12T06:14:04.758Z,100104.60
2023-05-12T06:17:07.514Z,100108.04
2023-05-12T06:20:10.701Z,100101.84
2023-05-12T06:23:13.346Z,100111.83
2023-05-12T06:26:16.047Z,100117.21
2023-05-12T06:29:19.919Z,100117.15
2023-05-12T06:32:22.562Z,100117.33
2023-05-12T06:35:25.256Z,100119.79
2023-05-12T06:38:27.835Z,100122.44
2023-05-12T06:41:30.821Z,100123.75
2023-05-12T06:44:33.422Z,100126.65
2023-05-12T06:47:36.055Z,100127.71
2023-05-12T06:50:38.901Z,100124.50
2023-05-12T06:53:41.570Z,100125.16
2023-05-12T06:56:44.231Z,100126.34
2023-05-12T06:59:46.802Z,100125.39
2023-05-12T07:02:49.789Z,100128.86
2023-05-12T07:05:52.505Z,100127.66
2023-05-12T07:08:55.982Z,100124.31
2023-05-12T07:11:59.286Z,100121.33
2023-05-12T07:15:01.874Z,100123.84
2023-05-12T07:18:04.609Z,100123.52
2023-05-12T07:21:07.856Z,100121.69
2023-05-12T07:24:10.455Z,100124.04
2023-05-12T07:27:13.142Z,100118.23
2023-05-12T07:30:16.501Z,100120.32
2023-05-12T07:33:18.989Z,100124.48
2023-05-12T07:36:22.091Z,100120.44
2023-05-12T07:39:25.258Z,100127.40
2023-05-12T07:42:28.037Z,100110.58
2023-05-12T07:45:30.752Z,100126.75
2023-05-12T07:48:40.012Z,100128.59
2023-05-12T07:51:44.171Z,100130.44
2023-05-12T07:54:46.936Z,100128.02
2023-05-12T07:57:49.727Z,100127.92
2023-05-12T08:00:54.557Z,100126.69
2023-05-12T08:03:57.282Z,100129.46
2023-05-12T08:06:59.939Z,100129.91
2023-05-12T08:10:04.201Z,100131.22
2023-05-12T08:13:06.767Z,100132.05
2023-05-12T08:16:09.490Z,100132.14
2023-05-12T08:19:13.118Z,100135.02
2023-05-12T08:22:16.450Z,100125.25
2023-05-12T08:25:19.384Z,100127.77
2023-05-12T08:28:22.184Z,100130.63
2023-05-12T08:31:24.882Z,100121.06
2023-05-12T08:34:28.107Z,100121.86
2023-05-12T08:37:33.717Z,100124.66
2023-05-12T08:40:54.133Z,100119.42
2023-05-12T08:43:57.314Z,100125.39
2023-05-12T08:47:01.473Z,100123.45
2023-05-12T08:50:05.605Z,100123.19
2023-05-12T08:53:12.261Z,100126.64
2023-05-12T08:59:26.256Z,100120.85
2023-05-12T09:02:38.013Z,100123.57
2023-05-12T09:05:47.793Z,100122.05
2023-05-12T09:08:51.390Z,100120.56
2023-05-12T09:11:57.596Z,100114.20
2023-05-12T09:15:12.109Z,100122.34
2023-05-12T09:18:16.219Z,100114.48
2023-05-12T09:21:19.919Z,100114.27
2023-05-12T09:24:35.085Z,100118.23
2023-05-12T09:27:37.712Z,100116.33
2023-05-12T09:30:42.543Z,100121.42
2023-05-12T09:33:45.490Z,100114.95
2023-05-12T09:37:02.582Z,100120.05
2023-05-12T09:40:07.669Z,100121.34
2023-05-12T09:43:12.438Z,100120.60
2023-05-12T09:46:16.484Z,100114.01
2023-05-12T09:49:27.237Z,100112.91
2023-05-12T09:52:33.049Z,100111.76
2023-05-12T09:55:35.722Z,100110.02
2023-05-12T09:58:43.094Z,100110.00
2023-05-12T10:01:45.792Z,100111.76
2023-05-12T10:05:01.281Z,100116.80
2023-05-12T10:08:08.400Z,100108.58
2023-05-12T10:11:11.999Z,100109.33
2023-05-12T10:14:15.658Z,100104.29
2023-05-12T10:17:20.584Z,100104.34
2023-05-12T10:20:23.462Z,100097.10
2023-05-12T10:23:27.658Z,100102.05
2023-05-12T10:26:32.506Z,100098.45
2023-05-12T10:29:37.773Z,100095.35
2023-05-12T10:32:40.625Z,100100.23
2023-05-12T10:35:44.226Z,100093.86
2023-05-12T10:38:50.387Z,100094.27
2023-05-12T10:42:01.750Z,100100.50
2023-05-12T10:45:17.092Z,100090.76
2023-05-12T10:48:19.786Z,100099.55
2023-05-12T10:51:28.602Z,100098.21
2023-05-12T10:54:46.801Z,100093.52
2023-05-12T10:57:54.024Z,100097.31
2023-05-12T11:01:05.995Z,100084.92
2023-05-12T11:04:17.395Z,100087.28
2023-05-12T11:07:22.587Z,100095.95
2023-05-12T11:10:26.529Z,100096.02
2023-05-12T11:13:30.530Z,100088.91
2023-05-12T11:16:33.192Z,100088.38
2023-05-12T11:19:37.178Z,100094.05
2023-05-12T11:22:41.179Z,100086.02
2023-05-12T11:25:44.780Z,100082.40
2023-05-12T11:28:47.834Z,100081.87
2023-05-12T11:31:51.755Z,100073.95
2023-05-12T11:34:54.721Z,100084.67
2023-05-12T11:37:57.267Z,100084.61
2023-05-12T11:40:59.833Z,100084.84
2023-05-12T11:44:16.720Z,100084.55
2023-05-12T11:47:20.148Z,100076.91
2023-05-12T11:50:24.571Z,100078.86
2023-05-12T11:53:27.755Z,100083.21
2023-05-12T11:56:30.644Z,100080.27
2023-05-12T11:59:34.856Z,100088.69
2023-05-12T12:02:39.842Z,100077.98
2023-05-12T12:05:46.565Z,100087.45
2023-05-12T12:08:53.085Z,100080.40
2023-05-12T12:11:56.142Z,100086.58
2023-05-12T12:15:00.491Z,100085.80
2023-05-12T12:18:03.267Z,100088.05
2023-05-12T12:21:06.024Z,100087.85
2023-05-12T12:24:08.610Z,100087.26
2023-05-12T12:27:11.226Z,100078.84
2023-05-12T12:30:17.154Z,100082.36
2023-05-12T12:33:21.365Z,100083.94
2023-05-12T12:36:24.137Z,100090.76
2023-05-12T12:39:27.203Z,100084.95
2023-05-12T12:42:30.088Z,100082.71
2023-05-12T12:45:33.061Z,100084.77
2023-05-12T12:48:35.651Z,100084.93
2023-05-12T12:51:45.642Z,100082.67
2023-05-12T12:54:49.540Z,100078.60
2023-05-12T12:57:52.100Z,100085.80
2023-05-12T13:00:54.691Z,100087.64
2023-05-12T13:03:57.565Z,100077.98
2023-05-12T13:07:00.396Z,100075.31
2023-05-12T13:10:04.056Z,100074.46
2023-05-12T13:13:07.317Z,100070.31
2023-05-12T13:16:09.932Z,100074.02
2023-05-12T13:19:12.634Z,100069.41
2023-05-12T13:22:15.465Z,100075.98
2023-05-12T13:25:18.310Z,100079.34
2023-05-12T13:28:21.216Z,100074.14
2023-05-12T13:31:24.001Z,100074.62
2023-05-12T13:34:26.824Z,100072.92
2023-05-12T13:37:29.477Z,100068.33
2023-05-12T13:40:32.478Z,100070.36
2023-05-12T13:43:35.041Z,100074.52
2023-05-12T13:46:37.698Z,100076.13
2023-05-12T13:49:40.356Z,100075.62
2023-05-12T13:52:43.233Z,100071.67
2023-05-12T13:55:45.919Z,100065.30
2023-05-12T13:58:48.579Z,100069.59
2023-05-12T14:01:51.280Z,100069.50
2023-05-12T14:04:53.953Z,100069.02
2023-05-12T14:07:56.987Z,100064.56
2023-05-12T14:10:59.758Z,100060.80
2023-05-12T14:14:03.638Z,100062.04
2023-05-12T14:17:06.499Z,100065.64
2023-05-12T14:20:09.664Z,100067.28
2023-05-12T14:23:12.526Z,100060.52
2023-05-12T14:26:15.422Z,100066.19
2023-05-12T14:29:17.922Z,100071.94
2023-05-12T14:32:20.562Z,100073.19
2023-05-12T14:35:27.700Z,100073.87
2023-05-12T14:38:30.592Z,100067.89
2023-05-12T14:41:33.178Z,100066.55
2023-05-12T14:44:35.813Z,100071.64
2023-05-12T14:47:38.433Z,100066.37
2023-05-12T14:50:43.710Z,100075.10
2023-05-12T14:53:46.279Z,100071.02
2023-05-12T14:56:48.787Z,100070.42
2023-05-12T14:59:54.440Z,100069.59
2023-05-12T15:02:57.185Z,100064.90
2023-05-12T15:09:05.745Z,100058.48
2023-05-12T15:12:08.916Z,100057.21
2023-05-12T15:15:12.231Z,100058.42
2023-05-12T15:18:14.957Z,100057.31
2023-05-12T15:21:17.729Z,100065.57
2023-05-12T15:24:20.796Z,100066.42
2023-05-12T15:27:23.817Z,100060.47
2023-05-12T15:30:26.454Z,100066.25
2023-05-12T15:33:30.440Z,100069.26
2023-05-12T15:36:34.169Z,100071.02
2023-05-12T15:39:36.912Z,100078.61
2023-05-12T15:42:40.589Z,100077.44
2023-05-12T15:45:43.155Z,100073.83
2023-05-12T15:48:49.084Z,100071.14
2023-05-12T15:51:51.654Z,100070.14
2023-05-12T15:54:54.390Z,100068.51
2023-05-12T15:57:57.498Z,100070.38
2023-05-12T16:01:00.417Z,100069.41
2023-05-12T16:04:03.416Z,100067.11
2023-05-12T16:07:06.405Z,100063.40
2023-05-12T16:10:09.618Z,100062.77
2023-05-12T16:13:12.353Z,100059.42
2023-05-12T16:16:14.990Z,100057.29
2023-05-12T16:19:18.180Z,100056.17
2023-05-12T16:22:21.065Z,100049.60
2023-05-12T16:25:23.980Z,100049.38
2023-05-12T16:28:27.118Z,100050.81
2023-05-12T16:31:31.296Z,100052.49
2023-05-12T16:34:33.982Z,100058.80
2023-05-12T16:37:36.947Z,100059.88
2023-05-12T16:40:40.053Z,100058.30
2023-05-12T16:43:42.722Z,100055.44
2023-05-12T16:46:45.414Z,100058.91
2023-05-12T16:49:53.432Z,100058.76
2023-05-12T16:52:56.336Z,100057.61
2023-05-12T16:55:59.554Z,100064.95
2023-05-12T16:59:02.152Z,100065.61
2023-05-12T17:02:05.269Z,100073.23
2023-05-12T17:05:08.500Z,100076.80
2023-05-12T17:08:11.402Z,100070.37
2023-05-12T17:11:14.063Z,100072.81
2023-05-12T17:14:17.894Z,100074.07
2023-05-12T17:17:21.836Z,100072.76
2023-05-12T17:20:24.497Z,100072.27
2023-05-12T17:23:28.298Z,100076.19
2023-05-12T17:26:31.175Z,100080.42
2023-05-12T17:29:34.144Z,100084.09
2023-05-12T17:32:36.718Z,100080.77
2023-05-12T17:35:39.544Z,100086.51
2023-05-12T17:38:42.263Z,100089.42
2023-05-12T17:41:44.889Z,100088.58
2023-05-12T17:44:47.651Z,100094.10
2023-05-12T17:47:50.880Z,100094.09
2023-05-12T17:50:53.603Z,100095.20
2023-05-12T17:53:56.699Z,100100.75
2023-05-12T17:56:59.454Z,100100.08
2023-05-12T18:00:06.500Z,100103.71
2023-05-12T18:03:09.336Z,100106.30
2023-05-12T18:06:12.961Z,100112.38
2023-05-12T18:09:17.759Z,100111.67
2023-05-12T18:12:20.855Z,100116.66
2023-05-12T18:15:24.622Z,100118.38
2023-05-12T18:18:27.273Z,100119.60
2023-05-12T18:21:30.086Z,100123.95
2023-05-12T18:24:32.712Z,100122.27
2023-05-12T18:27:36.120Z,100125.15
2023-05-12T18:30:38.953Z,100129.90
2023-05-12T18:33:41.689Z,100131.90
2023-05-12T18:36:44.546Z,100134.48
2023-05-12T18:39:47.170Z,100138.94
2023-05-12T18:42:50.891Z,100142.39
2023-05-12T18:45:53.558Z,100144.34
2023-05-12T18:48:56.208Z,100154.54
2023-05-12T18:51:58.893Z,100154.51
2023-05-12T18:55:01.457Z,100151.98
2023-05-12T18:58:03.977Z,100158.02
2023-05-12T19:01:06.951Z,100160.11
2023-05-12T19:04:10.021Z,100163.39
2023-05-12T19:07:15.514Z,100169.16
2023-05-12T19:10:18.241Z,100171.91
2023-05-12T19:13:20.893Z,100174.98
2023-05-12T19:16:26.466Z,100174.64
2023-05-12T19:19:29.423Z,100182.40
2023-05-12T19:22:32.189Z,100185.98
2023-05-12T19:25:35.583Z,100186.57
2023-05-12T19:28:38.346Z,100190.92
2023-05-12T19:31:41.156Z,100191.70
2023-05-12T19:34:44.802Z,100194.10
2023-05-12T19:37:47.365Z,100195.59
2023-05-12T19:40:49.906Z,100199.20
2023-05-12T19:43:52.471Z,100197.20
2023-05-12T19:46:55.327Z,100198.17
2023-05-12T19:49:57.918Z,100196.96
2023-05-12T19:53:00.690Z,100200.52
2023-05-12T19:56:03.376Z,100206.30
2023-05-12T19:59:05.936Z,100210.83
2023-05-12T20:02:14.985Z,100213.41
2023-05-12T20:05:17.929Z,100212.17
2023-05-12T20:08:20.767Z,100218.02
2023-05-12T20:11:23.445Z,100219.02
2023-05-12T20:14:26.000Z,100217.27
2023-05-12T20:17:28.617Z,100220.20
2023-05-12T20:20:31.590Z,100221.48
2023-05-12T20:23:34.303Z,100225.30
2023-05-12T20:26:37.034Z,100226.16
2023-05-12T20:29:39.730Z,100227.02
2023-05-12T20:32:43.712Z,100228.02
2023-05-12T20:35:46.598Z,100228.79
2023-05-12T20:38:49.094Z,100228.10
2023-05-12T20:41:51.658Z,100233.09
2023-05-12T20:44:54.352Z,100235.77
2023-05-12T20:47:57.169Z,100234.80
2023-05-12T20:51:09.285Z,100236.05
2023-05-12T20:54:11.907Z,100232.97
2023-05-12T20:57:14.492Z,100239.08
2023-05-12T21:00:18.461Z,100240.02
2023-05-12T21:03:22.880Z,100243.38
2023-05-12T21:06:25.779Z,100244.56
2023-05-12T21:09:28.656Z,100246.84
2023-05-12T21:12:31.885Z,100248.62
2023-05-12T21:15:34.795Z,100248.52
2023-05-12T21:18:37.496Z,100251.89
2023-05-12T21:21:40.081Z,100251.44
2023-05-12T21:24:43.131Z,100254.05
2023-05-12T21:27:47.521Z,100254.38
2023-05-12T21:30:50.219Z,100258.70
2023-05-12T21:33:52.783Z,100262.19
2023-05-12T21:36:56.552Z,100261.80
2023-05-12T21:39:59.243Z,100260.17
2023-05-12T21:43:02.029Z,100260.23
2023-05-12T21:46:05.804Z,100262.16
2023-05-12T21:49:08.771Z,100269.06
2023-05-12T21:52:12.366Z,100267.75
2023-05-12T21:55:15.326Z,100271.95
2023-05-12T21:58:18.427Z,100270.39
2023-05-12T22:01:21.110Z,100274.11
2023-05-12T22:04:23.640Z,100274.04
2023-05-12T22:07:26.424Z,100277.58
2023-05-12T22:10:31.700Z,100276.36
2023-05-12T22:13:34.432Z,100274.78
2023-05-12T22:16:41.808Z,100268.52
2023-05-12T22:19:45.156Z,100272.21
2023-05-12T22:22:47.699Z,100272.73
2023-05-12T22:25:50.759Z,100270.25
2023-05-12T22:28:53.349Z,100270.73
2023-05-12T22:31:55.869Z,100270.36
2023-05-12T22:34:58.785Z,100275.63
2023-05-12T22:38:01.554Z,100282.86
2023-05-12T22:41:04.173Z,100281.66
2023-05-12T22:44:06.779Z,100287.45
2023-05-12T22:51:07.676Z,100286.61
2023-05-12T22:54:10.170Z,100288.61
2023-05-12T22:57:13.792Z,100290.02
2023-05-12T23:00:16.588Z,100289.39
2023-05-12T23:03:19.171Z,100284.76
2023-05-12T23:06:21.712Z,100291.39
2023-05-12T23:09:24.281Z,100292.88
2023-05-12T23:12:27.048Z,100292.34
2023-05-12T23:15:29.721Z,100288.11
2023-05-12T23:18:32.718Z,100293.12
2023-05-12T23:21:37.395Z,100290.41
2023-05-12T23:24:40.896Z,100292.83
2023-05-12T23:27:43.459Z,100288.05
2023-05-12T23:30:46.331Z,100288.61
2023-05-12T23:33:49.055Z,100293.11
2023-05-12T23:36:51.748Z,100292.41
2023-05-12T23:39:56.470Z,100291.41
2023-05-12T23:42:59.430Z,100285.09
2023-05-12T23:46:02.229Z,100287.16
2023-05-12T23:49:04.908Z,100289.86
2023-05-12T23:52:07.849Z,100289.73
2023-05-12T23:55:11.860Z,100282.27
2023-05-12T23:58:14.549Z,100286.35
